Time;durP1;ratioP1;P1;durP2;ratioP2;P2;SDS_P1;SDS_P2;PMS_P1;PMS_P2;Temp;Humidity;BMP_temperature;BMP_pressure;BME280_temperature;BME280_humidity;BME280_pressure;Samples;Min_cycle;Max_cycle;Signal;HPM_P1;HPM_P2
2022/08/07 00:01:08;;;;;;;39.30;36.30;;;;;;;20.56;100.00;100649.66;5026379;28;20057;-85
2022/08/07 00:03:36;;;;;;;43.10;39.38;;;;;;;20.62;100.00;100655.84;5013914;28;20499;-83
2022/08/07 00:06:05;;;;;;;38.13;34.88;;;;;;;20.21;100.00;100658.63;5016709;28;20042;-83
2022/08/07 00:08:31;;;;;;;49.10;45.15;;;;;;;20.34;100.00;100654.53;5015891;28;20054;-81
2022/08/07 00:10:58;;;;;;;44.22;40.83;;;;;;;20.72;100.00;100655.00;5017888;28;20056;-81
2022/08/07 00:13:27;;;;;;;43.92;40.63;;;;;;;20.32;100.00;100652.09;5022932;28;20065;-83
2022/08/07 00:15:55;;;;;;;40.75;37.35;;;;;;;20.38;100.00;100658.31;5027511;28;20057;-83
2022/08/07 00:18:25;;;;;;;45.05;41.65;;;;;;;20.89;100.00;100662.78;5013861;28;20054;-81
2022/08/07 00:20:55;;;;;;;46.15;42.35;;;;;;;20.02;100.00;100658.34;5012016;28;20053;-84
2022/08/07 00:23:23;;;;;;;49.83;45.80;;;;;;;20.74;100.00;100656.34;5016936;28;20068;-81
2022/08/07 00:25:53;;;;;;;42.42;38.92;;;;;;;20.65;100.00;100655.31;5014171;28;20387;-82
2022/08/07 00:28:22;;;;;;;41.00;37.53;;;;;;;20.10;100.00;100665.88;5022844;28;20049;-82
2022/08/07 00:30:50;;;;;;;44.53;41.00;;;;;;;20.11;100.00;100667.50;5017193;28;20482;-83
2022/08/07 00:33:17;;;;;;;41.83;38.63;;;;;;;20.40;100.00;100666.94;5015554;28;20050;-81
2022/08/07 00:35:46;;;;;;;43.10;39.70;;;;;;;20.19;100.00;100666.16;5020948;28;20490;-81
2022/08/07 00:38:13;;;;;;;45.95;42.63;;;;;;;20.31;100.00;100663.19;5015423;28;20128;-83
2022/08/07 00:40:40;;;;;;;39.40;36.40;;;;;;;19.89;100.00;100665.06;5021979;28;20053;-81
2022/08/07 00:43:07;;;;;;;45.28;41.67;;;;;;;19.42;100.00;100673.31;5011488;28;20049;-81
2022/08/07 00:45:34;;;;;;;39.53;35.72;;;;;;;20.18;100.00;100661.81;5023988;28;20108;-84
2022/08/07 00:48:06;;;;;;;45.78;42.17;;;;;;;20.46;100.00;100654.25;5019103;28;20049;-83
2022/08/07 00:50:33;;;;;;;45.83;42.47;;;;;;;20.47;100.00;100669.34;5023652;28;20042;-81
2022/08/07 00:53:07;;;;;;;44.40;40.70;;;;;;;20.32;100.00;100657.50;5018456;28;20503;-84
2022/08/07 00:55:34;;;;;;;40.85;37.35;;;;;;;20.35;100.00;100666.94;5016726;28;20054;-88
2022/08/07 00:58:02;;;;;;;40.28;37.08;;;;;;;20.53;100.00;100665.59;5021782;28;20053;-82
2022/08/07 01:00:29;;;;;;;45.25;41.75;;;;;;;20.43;100.00;100669.09;5017933;28;20049;-82
2022/08/07 01:02:57;;;;;;;52.63;48.83;;;;;;;20.37;100.00;100664.78;5013735;28;20372;-82
2022/08/07 01:05:25;;;;;;;48.00;44.40;;;;;;;20.44;100.00;100659.91;5024321;28;20104;-84
2022/08/07 01:07:53;;;;;;;41.78;38.25;;;;;;;20.27;100.00;100673.72;5018839;28;20480;-84
2022/08/07 01:10:21;;;;;;;42.55;39.03;;;;;;;20.51;100.00;100673.91;5017573;28;20065;-84
2022/08/07 01:12:54;;;;;;;44.50;41.00;;;;;;;20.39;100.00;100668.00;5021504;28;20384;-84
2022/08/07 01:15:22;;;;;;;41.03;37.75;;;;;;;20.29;100.00;100662.63;5024560;28;20057;-82
2022/08/07 01:17:49;;;;;;;44.17;40.72;;;;;;;20.11;100.00;100662.09;5025935;28;20064;-83
2022/08/07 01:20:17;;;;;;;40.17;36.63;;;;;;;19.77;100.00;100669.91;5021049;28;20053;-81
2022/08/07 01:22:46;;;;;;;40.45;37.00;;;;;;;19.49;100.00;100671.19;5018646;28;20053;-81
2022/08/07 01:25:13;;;;;;;42.80;38.63;;;;;;;19.86;100.00;100672.91;5018156;28;20050;-81
2022/08/07 01:27:40;;;;;;;42.58;38.65;;;;;;;19.97;100.00;100682.63;5018078;28;20061;-81
2022/08/07 01:30:09;;;;;;;38.78;35.00;;;;;;;20.17;100.00;100689.06;5019070;28;20050;-81
2022/08/07 01:32:37;;;;;;;39.33;35.90;;;;;;;20.08;100.00;100684.22;5025328;28;20395;-85
2022/08/07 01:35:05;;;;;;;39.70;36.20;;;;;;;20.01;100.00;100688.28;5023729;28;20050;-83
2022/08/07 01:37:32;;;;;;;45.20;41.25;;;;;;;19.64;100.00;100697.38;5018917;28;20513;-82
2022/08/07 01:40:01;;;;;;;43.63;39.53;;;;;;;19.44;100.00;100688.16;5013728;28;20046;-82
2022/08/07 01:42:28;;;;;;;51.67;47.45;;;;;;;19.25;100.00;100678.13;5018576;28;20466;-81
2022/08/07 01:44:55;;;;;;;45.65;41.72;;;;;;;19.31;100.00;100682.47;5031420;28;20054;-82
2022/08/07 01:47:22;;;;;;;44.88;41.08;;;;;;;19.84;100.00;100681.22;5019690;28;20064;-80
2022/08/07 01:49:50;;;;;;;41.55;37.85;;;;;;;19.63;100.00;100682.25;5021049;28;20053;-83
2022/08/07 01:52:18;;;;;;;51.20;46.80;;;;;;;19.08;100.00;100687.22;5015882;28;20495;-81
2022/08/07 01:54:46;;;;;;;56.00;51.60;;;;;;;18.91;100.00;100686.59;5031052;28;20116;-81
2022/08/07 01:57:20;;;;;;;44.78;40.65;;;;;;;19.37;100.00;100684.91;5015544;28;20048;-82
2022/08/07 01:59:53;;;;;;;42.95;39.17;;;;;;;19.07;100.00;100684.81;5016611;28;20054;-83
2022/08/07 02:02:26;;;;;;;49.08;45.35;;;;;;;19.75;100.00;100688.22;5143794;22;20054;-82
2022/08/07 02:05:01;;;;;;;45.63;41.83;;;;;;;19.65;100.00;100683.66;5045773;28;20114;-83
2022/08/07 02:07:33;;;;;;;46.22;42.67;;;;;;;19.80;100.00;100688.25;5043916;28;20037;-83
2022/08/07 02:10:02;;;;;;;50.00;45.90;;;;;;;19.44;100.00;100695.41;5037822;28;20048;-81
2022/08/07 02:12:36;;;;;;;44.85;41.17;;;;;;;19.33;100.00;100691.06;5045941;28;20048;-84
2022/08/07 02:15:05;;;;;;;47.85;44.30;;;;;;;19.61;100.00;100696.00;5047722;28;20494;-83
2022/08/07 02:17:33;;;;;;;48.92;45.03;;;;;;;19.62;100.00;100705.69;5049109;28;20535;-85
2022/08/07 02:20:02;;;;;;;53.70;49.90;;;;;;;19.68;100.00;100707.34;5046141;28;20048;-83
2022/08/07 02:22:32;;;;;;;53.03;48.72;;;;;;;19.19;100.00;100701.53;5051335;28;20041;-80
2022/08/07 02:25:00;;;;;;;45.47;41.88;;;;;;;19.03;100.00;100697.94;5051080;28;20045;-81
2022/08/07 02:27:30;;;;;;;42.28;38.50;;;;;;;18.81;100.00;100708.88;5048090;28;20045;-83
2022/08/07 02:29:59;;;;;;;50.25;46.25;;;;;;;19.25;100.00;100710.44;5044426;28;20050;-82
2022/08/07 02:32:27;;;;;;;45.38;41.83;;;;;;;19.41;100.00;100704.03;5048000;28;20110;-80
2022/08/07 02:34:55;;;;;;;44.50;40.75;;;;;;;18.92;100.00;100713.25;5038246;28;20057;-83
2022/08/07 02:37:26;;;;;;;46.08;42.28;;;;;;;18.78;100.00;100720.16;5042862;28;20044;-83
2022/08/07 02:39:55;;;;;;;46.78;42.97;;;;;;;19.18;100.00;100708.81;5043226;28;20056;-83
2022/08/07 02:42:30;;;;;;;51.83;47.58;;;;;;;19.17;100.00;100711.75;5042703;28;20049;-83
2022/08/07 02:45:02;;;;;;;40.05;36.45;;;;;;;19.43;100.00;100712.66;5049298;28;20049;-83
2022/08/07 02:47:29;;;;;;;41.65;38.25;;;;;;;19.54;100.00;100714.28;5044584;28;20069;-83
2022/08/07 02:49:58;;;;;;;44.55;40.95;;;;;;;19.30;100.00;100708.56;5046233;28;20060;-80
2022/08/07 02:52:30;;;;;;;41.13;37.47;;;;;;;19.25;100.00;100705.06;5039621;28;20053;-81
2022/08/07 02:55:03;;;;;;;49.90;45.90;;;;;;;19.39;100.00;100704.28;5043701;28;20477;-83
2022/08/07 02:57:35;;;;;;;41.83;38.17;;;;;;;19.42;100.00;100716.41;5047961;28;20055;-81
2022/08/07 03:00:04;;;;;;;40.67;37.17;;;;;;;19.60;100.00;100715.91;5042898;28;20057;-82
2022/08/07 03:02:32;;;;;;;40.83;37.15;;;;;;;19.48;100.00;100709.97;5045642;28;20409;-79
2022/08/07 03:05:01;;;;;;;42.00;38.40;;;;;;;19.72;100.00;100717.59;5042304;28;20056;-82
2022/08/07 03:07:30;;;;;;;39.45;36.00;;;;;;;19.61;100.00;100714.06;5044095;28;20484;-82
2022/08/07 03:09:59;;;;;;;40.28;36.88;;;;;;;19.68;100.00;100720.81;5048314;28;20049;-81
2022/08/07 03:12:27;;;;;;;43.50;40.10;;;;;;;19.75;100.00;100720.56;5045854;28;20050;-80
2022/08/07 03:14:57;;;;;;;38.38;35.03;;;;;;;19.31;100.00;100712.09;5048490;28;20080;-81
2022/08/07 03:17:24;;;;;;;38.38;34.85;;;;;;;19.13;100.00;100721.44;5049291;28;20067;-80
2022/08/07 03:19:52;;;;;;;43.85;40.25;;;;;;;19.26;100.00;100723.63;5045531;28;20047;-81
2022/08/07 03:22:20;;;;;;;38.92;35.38;;;;;;;19.92;100.00;100738.41;5042598;28;20045;-80
2022/08/07 03:24:48;;;;;;;35.92;32.75;;;;;;;20.08;100.00;100735.44;5042027;28;20051;-82
2022/08/07 03:27:17;;;;;;;35.25;31.95;;;;;;;19.30;100.00;100737.38;5045236;28;20485;-81
2022/08/07 03:29:47;;;;;;;37.63;33.85;;;;;;;19.47;100.00;100737.97;5047573;28;20053;-81
2022/08/07 03:32:24;;;;;;;37.53;34.22;;;;;;;19.86;100.00;100740.28;5050411;28;20052;-82
2022/08/07 03:34:57;;;;;;;37.20;33.88;;;;;;;20.28;100.00;100742.72;5041229;28;20049;-82
2022/08/07 03:37:26;;;;;;;36.50;33.25;;;;;;;20.20;100.00;100737.88;5045460;28;20076;-80
2022/08/07 03:39:53;;;;;;;36.95;33.85;;;;;;;20.35;100.00;100747.84;5049548;28;20110;-82
2022/08/07 03:42:21;;;;;;;37.38;34.22;;;;;;;20.14;100.00;100733.56;5042866;28;20468;-85
2022/08/07 03:44:48;;;;;;;37.33;34.08;;;;;;;19.99;100.00;100739.75;5049317;28;20044;-80
2022/08/07 03:47:16;;;;;;;37.15;33.97;;;;;;;20.29;100.00;100746.22;5045978;28;20042;-80
2022/08/07 03:49:44;;;;;;;36.28;33.08;;;;;;;20.19;100.00;100746.25;5050937;28;20064;-81
2022/08/07 03:52:12;;;;;;;36.28;33.15;;;;;;;19.84;100.00;100750.50;5044260;28;20053;-83
2022/08/07 03:54:41;;;;;;;36.70;33.50;;;;;;;19.64;100.00;100756.63;5046146;28;20477;-82
2022/08/07 03:57:14;;;;;;;35.55;32.13;;;;;;;20.17;100.00;100759.97;5044339;28;20382;-81
2022/08/07 03:59:42;;;;;;;35.95;32.53;;;;;;;20.36;100.00;100753.00;5043144;28;20061;-81
2022/08/07 04:02:09;;;;;;;36.08;33.13;;;;;;;20.49;100.00;100756.22;5039888;28;20395;-81
2022/08/07 04:04:36;;;;;;;34.83;31.98;;;;;;;20.57;100.00;100761.06;5044457;28;20046;-83
2022/08/07 04:07:06;;;;;;;36.38;33.33;;;;;;;20.78;100.00;100761.84;5039962;28;20041;-83
2022/08/07 04:09:35;;;;;;;36.08;33.17;;;;;;;20.80;100.00;100763.22;5041927;28;20064;-81
2022/08/07 04:12:04;;;;;;;35.05;32.08;;;;;;;20.67;100.00;100760.28;5048071;28;20049;-81
2022/08/07 04:14:31;;;;;;;37.75;34.75;;;;;;;20.62;100.00;100769.19;5040954;28;20049;-83
2022/08/07 04:16:59;;;;;;;35.33;32.42;;;;;;;20.55;100.00;100760.56;5046452;28;20053;-83
2022/08/07 04:19:27;;;;;;;34.20;31.42;;;;;;;20.67;100.00;100766.47;5046361;28;20048;-83
2022/08/07 04:21:54;;;;;;;35.58;32.47;;;;;;;20.92;100.00;100764.81;5048741;28;20404;-81
2022/08/07 04:24:26;;;;;;;35.88;32.40;;;;;;;21.00;100.00;100764.25;5050231;28;20048;-83
2022/08/07 04:26:53;;;;;;;;;;;;;;;21.14;100.00;100769.88;5048667;28;20053;-80
2022/08/07 04:29:20;;;;;;;35.50;32.60;;;;;;;21.17;100.00;100762.03;5045943;28;19976;-82
2022/08/07 04:31:47;;;;;;;33.88;30.95;;;;;;;21.05;100.00;100777.72;5046570;28;20061;-82
2022/08/07 04:34:15;;;;;;;35.63;32.50;;;;;;;21.27;100.00;100767.41;5051235;28;20046;-82
2022/08/07 04:36:42;;;;;;;35.15;32.25;;;;;;;21.27;100.00;100777.38;5055568;28;20047;-82
2022/08/07 04:39:09;;;;;;;34.80;32.00;;;;;;;21.30;100.00;100776.03;5047038;28;20045;-82
2022/08/07 04:41:37;;;;;;;34.78;31.88;;;;;;;21.38;100.00;100779.00;5045987;28;20440;-80
2022/08/07 04:44:05;;;;;;;34.70;31.83;;;;;;;21.51;100.00;100780.28;5050748;28;20045;-79
2022/08/07 04:46:42;;;;;;;34.92;32.03;;;;;;;21.55;100.00;100770.56;5050234;28;20045;-81
2022/08/07 04:49:16;;;;;;;34.22;31.30;;;;;;;21.77;100.00;100778.28;5049827;28;20045;-79
2022/08/07 04:51:51;;;;;;;36.15;33.05;;;;;;;21.82;100.00;100772.03;5048522;28;20053;-80
2022/08/07 04:54:24;;;;;;;34.08;31.08;;;;;;;21.89;100.00;100775.25;5054179;28;20045;-79
2022/08/07 04:56:58;;;;;;;34.13;31.25;;;;;;;21.99;100.00;100769.75;5052758;28;20049;-80
2022/08/07 04:59:32;;;;;;;33.60;30.67;;;;;;;21.96;100.00;100776.53;5053774;28;20041;-82
2022/08/07 05:02:05;;;;;;;33.28;30.38;;;;;;;22.00;100.00;100771.38;5057357;28;20044;-82
2022/08/07 05:04:41;;;;;;;34.17;31.30;;;;;;;21.95;100.00;100769.50;5050674;28;20044;-82
2022/08/07 05:07:16;;;;;;;33.90;30.65;;;;;;;22.29;100.00;100776.88;5053926;28;20118;-81
2022/08/07 05:09:55;;;;;;;36.17;33.13;;;;;;;22.62;100.00;100777.94;5048832;28;20053;-79
2022/08/07 05:12:35;;;;;;;34.42;31.23;;;;;;;22.44;100.00;100775.94;5041408;28;20493;-80
2022/08/07 05:15:15;;;;;;;35.42;31.90;;;;;;;22.74;100.00;100774.84;5052618;28;20060;-82
2022/08/07 05:17:45;;;;;;;34.53;31.30;;;;;;;22.84;100.00;100772.06;5053011;28;20087;-80
2022/08/07 05:20:17;;;;;;;33.38;30.48;;;;;;;23.18;100.00;100781.19;5052338;28;20045;-82
2022/08/07 05:22:46;;;;;;;33.75;30.95;;;;;;;23.58;100.00;100781.78;5052805;28;20111;-80
2022/08/07 05:25:17;;;;;;;33.20;30.20;;;;;;;23.67;100.00;100786.28;5050304;28;20042;-82
2022/08/07 05:27:47;;;;;;;32.72;30.02;;;;;;;23.75;100.00;100782.94;5051431;28;20060;-81
2022/08/07 05:30:17;;;;;;;33.55;30.55;;;;;;;24.20;100.00;100785.25;5053742;28;20454;-81
2022/08/07 05:32:46;;;;;;;33.40;30.20;;;;;;;24.46;100.00;100793.81;5051549;28;20041;-80
2022/08/07 05:35:17;;;;;;;33.20;30.33;;;;;;;24.89;100.00;100791.69;5047024;28;20057;-81
2022/08/07 05:37:46;;;;;;;32.33;29.35;;;;;;;24.99;100.00;100792.59;5043637;28;20053;-82
2022/08/07 05:40:16;;;;;;;30.77;28.17;;;;;;;25.06;100.00;100799.28;5049326;28;20053;-82
2022/08/07 05:42:47;;;;;;;30.77;28.17;;;;;;;25.09;100.00;100795.94;5042596;28;20129;-82
2022/08/07 05:45:16;;;;;;;31.08;28.38;;;;;;;25.34;100.00;100802.00;5050354;28;20060;-81
2022/08/07 05:47:44;;;;;;;31.55;28.77;;;;;;;25.53;100.00;100797.25;5041926;28;20397;-81
2022/08/07 05:50:11;;;;;;;33.22;29.58;;;;;;;25.37;100.00;100801.41;5043570;28;20052;-81
2022/08/07 05:52:38;;;;;;;31.55;28.95;;;;;;;25.39;100.00;100807.34;5040443;28;20116;-81
2022/08/07 05:55:07;;;;;;;31.85;29.17;;;;;;;25.63;100.00;100798.97;5048624;28;20460;-82
2022/08/07 05:57:36;;;;;;;31.42;28.70;;;;;;;25.97;100.00;100803.94;5045612;28;20124;-81
2022/08/07 06:00:14;;;;;;;31.25;28.42;;;;;;;26.10;100.00;100801.47;5049468;28;20053;-79
2022/08/07 06:02:45;;;;;;;31.58;28.55;;;;;;;26.24;100.00;100803.03;5042989;28;20144;-80
2022/08/07 06:05:13;;;;;;;31.63;28.85;;;;;;;26.54;100.00;100803.44;5041927;28;20460;-79
2022/08/07 06:07:41;;;;;;;33.25;30.55;;;;;;;26.53;100.00;100803.72;5041614;28;20137;-79
2022/08/07 06:10:11;;;;;;;31.98;28.95;;;;;;;26.78;100.00;100807.72;5043911;28;20049;-81
2022/08/07 06:12:38;;;;;;;32.40;29.52;;;;;;;26.77;100.00;100801.47;5045782;28;20049;-80
2022/08/07 06:15:09;;;;;;;43.17;40.08;;;;;;;26.99;100.00;100808.81;5047276;28;20048;-80
2022/08/07 06:17:37;;;;;;;44.20;40.50;;;;;;;27.08;100.00;100806.09;5047516;28;20044;-81
2022/08/07 06:20:05;;;;;;;42.75;39.67;;;;;;;27.07;100.00;100805.28;5044432;28;20515;-80
2022/08/07 06:22:34;;;;;;;31.38;28.65;;;;;;;27.11;100.00;100797.28;5047337;28;20052;-80
2022/08/07 06:25:01;;;;;;;32.03;29.30;;;;;;;27.00;100.00;100810.41;5049965;28;20072;-80
2022/08/07 06:27:28;;;;;;;31.90;29.30;;;;;;;27.15;100.00;100801.81;5044613;28;20052;-79
2022/08/07 06:29:57;;;;;;;34.22;31.30;;;;;;;27.45;100.00;100804.00;5046737;28;20052;-80
2022/08/07 06:32:25;;;;;;;32.28;29.38;;;;;;;27.69;100.00;100809.03;5049706;28;20060;-81
2022/08/07 06:34:53;;;;;;;31.88;29.40;;;;;;;27.50;100.00;100810.09;5047733;28;20095;-79
2022/08/07 06:37:21;;;;;;;31.27;28.75;;;;;;;27.65;100.00;100811.56;5041581;28;20102;-80
2022/08/07 06:39:48;;;;;;;31.63;29.13;;;;;;;27.67;100.00;100805.81;5046553;28;20052;-80
2022/08/07 06:42:20;;;;;;;32.60;29.85;;;;;;;27.51;100.00;100805.47;5045609;28;20111;-80
2022/08/07 06:44:50;;;;;;;33.05;30.33;;;;;;;27.85;100.00;100802.00;5042383;28;20054;-79
2022/08/07 06:47:19;;;;;;;30.90;28.42;;;;;;;27.70;100.00;100802.44;5047282;28;20426;-82
2022/08/07 06:49:48;;;;;;;31.50;28.70;;;;;;;28.07;100.00;100801.81;5046560;28;20053;-81
2022/08/07 06:52:17;;;;;;;32.90;30.23;;;;;;;27.79;100.00;100803.28;5047182;28;20060;-80
2022/08/07 06:54:46;;;;;;;33.10;30.40;;;;;;;27.84;100.00;100811.31;5044727;28;20057;-80
2022/08/07 06:57:13;;;;;;;33.47;30.67;;;;;;;28.20;100.00;100812.91;5043575;28;20049;-81
2022/08/07 06:59:43;;;;;;;33.67;30.02;;;;;;;28.56;100.00;100806.28;5048875;28;20108;-81
2022/08/07 07:02:17;;;;;;;33.20;30.65;;;;;;;28.41;100.00;100805.69;5039562;28;20055;-81
2022/08/07 07:04:45;;;;;;;31.48;28.85;;;;;;;28.19;100.00;100812.09;5047525;28;20060;-80
2022/08/07 07:07:14;;;;;;;34.55;31.65;;;;;;;28.58;100.00;100815.78;5047349;28;20060;-79
2022/08/07 07:09:45;;;;;;;33.15;30.65;;;;;;;28.82;100.00;100808.97;5049758;28;20041;-80
2022/08/07 07:12:24;;;;;;;33.10;30.60;;;;;;;28.94;100.00;100814.53;5046272;28;20096;-80
2022/08/07 07:14:58;;;;;;;35.25;32.20;;;;;;;28.89;100.00;100820.19;5051461;28;20051;-80
2022/08/07 07:17:31;;;;;;;34.38;31.60;;;;;;;29.21;100.00;100824.28;5042568;28;20053;-80
2022/08/07 07:19:59;;;;;;;;;;;;;;;29.16;100.00;100814.31;5046406;28;20055;-80
2022/08/07 07:22:29;;;;;;;37.08;34.33;;;;;;;29.33;100.00;100824.38;5046105;28;20357;-81
2022/08/07 07:24:57;;;;;;;34.05;31.20;;;;;;;29.14;100.00;100822.06;5050205;28;20056;-80
2022/08/07 07:27:29;;;;;;;39.67;36.28;;;;;;;29.27;100.00;100824.91;5049492;28;20040;-83
2022/08/07 07:30:00;;;;;;;36.85;34.00;;;;;;;29.53;99.87;100828.25;5047788;28;20056;-80
2022/08/07 07:32:33;;;;;;;34.75;32.03;;;;;;;29.70;98.92;100826.59;5045280;28;20485;-82
2022/08/07 07:35:03;;;;;;;36.58;33.60;;;;;;;29.96;99.11;100831.91;5048655;28;20045;-82
2022/08/07 07:37:34;;;;;;;39.25;36.47;;;;;;;30.00;92.94;100828.13;5047850;28;20051;-81
2022/08/07 07:40:05;;;;;;;36.40;33.72;;;;;;;29.71;98.11;100828.19;5049347;28;20049;-82
2022/08/07 07:42:36;;;;;;;34.15;31.45;;;;;;;30.07;98.09;100827.59;5046844;28;20041;-84
2022/08/07 07:45:05;;;;;;;34.05;31.50;;;;;;;30.43;94.15;100823.44;5044532;28;20041;-80
2022/08/07 07:47:36;;;;;;;33.97;31.35;;;;;;;30.44;94.96;100833.25;5045995;28;20048;-80
2022/08/07 07:50:05;;;;;;;35.13;32.20;;;;;;;30.48;89.73;100825.97;5047804;28;20056;-81
2022/08/07 07:52:35;;;;;;;35.22;32.58;;;;;;;30.16;96.23;100824.78;5046347;28;20493;-81
2022/08/07 07:55:04;;;;;;;37.80;34.80;;;;;;;30.57;88.80;100819.25;5050771;28;20049;-80
2022/08/07 07:57:33;;;;;;;34.67;32.05;;;;;;;30.79;92.09;100822.75;5047801;28;20056;-83
2022/08/07 08:00:03;;;;;;;34.15;31.52;;;;;;;30.67;93.34;100817.22;5048527;28;20071;-81
2022/08/07 08:02:34;;;;;;;32.28;29.35;;;;;;;30.70;89.27;100825.56;5051892;28;20057;-81
2022/08/07 08:05:03;;;;;;;33.20;30.48;;;;;;;31.16;88.31;100820.84;5056554;28;20055;-82
2022/08/07 08:07:35;;;;;;;30.90;28.58;;;;;;;31.05;88.58;100821.66;5046336;28;20071;-81
2022/08/07 08:10:04;;;;;;;32.15;29.27;;;;;;;31.07;82.96;100820.16;5038216;28;20481;-81
2022/08/07 08:12:33;;;;;;;33.33;30.75;;;;;;;31.17;86.18;100821.66;5049150;28;20132;-81
2022/08/07 08:15:01;;;;;;;30.95;28.48;;;;;;;31.29;82.92;100818.09;5050451;28;20046;-81
2022/08/07 08:17:29;;;;;;;31.20;28.58;;;;;;;31.20;81.11;100816.28;5046242;28;20060;-81
2022/08/07 08:20:02;;;;;;;30.27;27.67;;;;;;;31.39;81.46;100817.66;5046533;28;20489;-84
2022/08/07 08:28:09;;;;;;;30.98;28.50;;;;;;;30.80;82.46;100827.09;5049474;28;20545;-81
2022/08/07 08:30:38;;;;;;;32.65;29.65;;;;;;;30.85;82.40;100834.31;5049744;28;20490;-81
2022/08/07 08:33:06;;;;;;;33.08;30.33;;;;;;;30.69;83.97;100831.41;5050886;28;20053;-79
2022/08/07 08:35:35;;;;;;;31.17;28.27;;;;;;;31.13;85.21;100821.53;5045563;28;20049;-79
2022/08/07 08:38:05;;;;;;;31.42;28.80;;;;;;;31.32;79.75;100831.94;5046969;28;20060;-80
2022/08/07 08:40:38;;;;;;;30.65;28.15;;;;;;;30.99;77.22;100821.88;5049653;28;20505;-80
2022/08/07 08:43:12;;;;;;;29.35;27.02;;;;;;;31.00;77.00;100822.66;5054306;28;20049;-80
2022/08/07 08:45:44;;;;;;;31.52;28.65;;;;;;;31.32;75.37;100823.72;5048996;28;20053;-79
2022/08/07 08:48:25;;;;;;;33.58;30.08;;;;;;;31.27;76.79;100818.44;5047911;28;20060;-80
2022/08/07 08:50:56;;;;;;;30.98;28.38;;;;;;;31.57;77.56;100813.53;5050877;28;20565;-79
2022/08/07 08:53:33;;;;;;;34.35;31.60;;;;;;;31.58;77.79;100814.31;5050088;28;20060;-81
2022/08/07 08:56:07;;;;;;;32.30;29.38;;;;;;;31.51;73.78;100808.63;5050689;28;20107;-80
2022/08/07 08:58:43;;;;;;;32.30;29.33;;;;;;;31.33;73.68;100814.31;5047624;28;20117;-79
2022/08/07 09:01:15;;;;;;;30.50;28.08;;;;;;;31.70;77.90;100806.06;5051953;28;20064;-79
2022/08/07 09:03:48;;;;;;;;;;;;;;;32.12;68.30;100803.78;5050063;28;20045;-79
2022/08/07 09:06:26;;;;;;;34.22;31.60;;;;;;;32.00;71.22;100811.28;5044029;28;19920;-80
2022/08/07 09:09:02;;;;;;;33.22;30.52;;;;;;;32.33;69.06;100800.81;5052014;28;20049;-80
2022/08/07 09:11:41;;;;;;;35.05;32.28;;;;;;;32.10;71.83;100806.06;5045087;28;20049;-82
2022/08/07 09:14:16;;;;;;;35.03;32.22;;;;;;;31.95;69.44;100795.81;5048993;28;20049;-80
2022/08/07 09:16:54;;;;;;;32.42;29.88;;;;;;;31.78;69.16;100787.88;5052509;28;20131;-81
2022/08/07 09:19:30;;;;;;;35.50;32.90;;;;;;;31.60;71.16;100776.34;5049038;28;20498;-81
2022/08/07 09:22:10;;;;;;;34.42;31.67;;;;;;;32.02;69.93;100795.25;5044029;28;20183;-81
2022/08/07 09:24:47;;;;;;;34.28;31.13;;;;;;;32.45;65.33;100783.50;5051404;28;20041;-81
2022/08/07 09:27:29;;;;;;;31.42;28.90;;;;;;;32.40;66.00;100794.69;5053023;28;20125;-81
2022/08/07 09:30:05;;;;;;;31.95;28.98;;;;;;;32.36;68.96;100782.84;5048430;28;20053;-80
2022/08/07 09:32:49;;;;;;;33.42;30.42;;;;;;;32.43;63.33;100782.22;5044314;28;20098;-80
2022/08/07 09:35:25;;;;;;;32.75;30.13;;;;;;;32.38;63.15;100786.84;5045611;28;20045;-80
2022/08/07 09:38:06;;;;;;;35.08;32.42;;;;;;;33.23;56.74;100784.66;5042199;28;20045;-82
2022/08/07 09:40:42;;;;;;;34.70;32.10;;;;;;;33.40;58.55;100774.41;5044011;28;20099;-83
2022/08/07 09:43:26;;;;;;;34.03;31.25;;;;;;;33.09;58.98;100769.78;5042239;28;20076;-81
2022/08/07 09:46:04;;;;;;;35.65;32.88;;;;;;;32.98;54.90;100775.81;5052140;28;20405;-82
2022/08/07 09:48:41;;;;;;;34.55;31.83;;;;;;;32.83;57.73;100776.56;5052101;28;20053;-81
2022/08/07 09:51:25;;;;;;;32.40;29.90;;;;;;;32.72;57.07;100770.03;5042408;28;20045;-81
2022/08/07 09:54:00;;;;;;;31.17;28.67;;;;;;;33.13;57.05;100760.44;5051695;28;20087;-82
2022/08/07 09:56:48;;;;;;;30.15;27.90;;;;;;;32.94;57.03;100758.41;5058539;28;20053;-82
2022/08/07 09:59:37;;;;;;;31.05;28.48;;;;;;;32.13;60.27;100766.09;5049722;28;20048;-82
2022/08/07 10:02:32;;;;;;;31.23;28.70;;;;;;;32.01;61.03;100766.16;5042433;28;20053;-80
2022/08/07 10:05:16;;;;;;;33.17;30.60;;;;;;;31.74;65.37;100763.03;5054589;28;20057;-79
2022/08/07 10:07:57;;;;;;;32.53;30.02;;;;;;;31.94;61.87;100755.78;5056373;28;20040;-81
2022/08/07 10:10:36;;;;;;;32.25;29.65;;;;;;;31.48;62.77;100756.03;5054514;28;20045;-82
2022/08/07 10:13:17;;;;;;;32.17;29.48;;;;;;;31.83;60.67;100755.47;5045840;28;20053;-82
2022/08/07 10:16:01;;;;;;;32.95;30.20;;;;;;;31.47;63.23;100759.94;5056820;28;20114;-80
2022/08/07 10:18:49;;;;;;;34.55;31.75;;;;;;;31.64;61.36;100753.34;5049069;28;20041;-82
2022/08/07 10:21:31;;;;;;;29.92;27.50;;;;;;;31.26;67.15;100757.31;5048891;28;20053;-80
2022/08/07 10:24:24;;;;;;;30.50;28.13;;;;;;;32.53;56.21;100745.97;5052469;28;20481;-82
2022/08/07 10:27:06;;;;;;;28.40;26.30;;;;;;;32.35;56.99;100735.31;5056663;28;20045;-81
2022/08/07 10:30:06;;;;;;;29.95;27.45;;;;;;;33.04;51.84;100730.38;5045942;28;20049;-82
2022/08/07 10:33:12;;;;;;;30.35;27.65;;;;;;;32.64;55.34;100729.78;5051338;28;20056;-81
2022/08/07 10:35:53;;;;;;;38.65;35.42;;;;;;;33.22;55.00;100728.00;5047326;28;20056;-82
2022/08/07 10:38:40;;;;;;;31.45;28.60;;;;;;;33.41;54.86;100729.22;5052812;28;20061;-82
2022/08/07 10:41:19;;;;;;;31.83;29.20;;;;;;;33.20;54.62;100718.53;5055699;28;20056;-83
2022/08/07 10:43:56;;;;;;;31.10;28.27;;;;;;;33.21;53.47;100742.94;5051630;28;20049;-80
2022/08/07 10:46:26;;;;;;;30.02;27.42;;;;;;;33.78;48.37;100734.31;5050943;28;20048;-81
2022/08/07 10:49:09;;;;;;;31.20;28.77;;;;;;;33.54;51.34;100732.66;5043923;28;20061;-80
2022/08/07 10:51:40;;;;;;;29.85;27.27;;;;;;;33.54;49.92;100733.44;5055280;28;20053;-80
2022/08/07 10:54:15;;;;;;;31.05;28.52;;;;;;;33.53;51.72;100734.63;5053144;28;20127;-81
2022/08/07 10:56:54;;;;;;;31.85;29.13;;;;;;;33.63;49.90;100736.00;5055562;28;20052;-82
2022/08/07 10:59:33;;;;;;;30.75;28.35;;;;;;;33.13;50.80;100724.66;5051167;28;20465;-80
2022/08/07 11:02:11;;;;;;;32.05;29.65;;;;;;;33.51;51.36;100725.91;5050916;28;20401;-81
2022/08/07 11:04:52;;;;;;;33.55;31.05;;;;;;;32.88;53.93;100715.81;5051987;28;20429;-80
2022/08/07 11:07:31;;;;;;;33.42;30.65;;;;;;;33.43;52.94;100732.38;5053661;28;20052;-81
2022/08/07 11:10:03;;;;;;;29.85;27.63;;;;;;;34.01;48.70;100712.31;5052715;28;20124;-81
2022/08/07 11:12:36;;;;;;;31.45;29.10;;;;;;;32.96;52.43;100720.34;5048389;28;20056;-81
2022/08/07 11:15:09;;;;;;;33.00;30.42;;;;;;;33.72;51.73;100709.03;5048708;28;20053;-82
2022/08/07 11:17:44;;;;;;;36.05;33.10;;;;;;;33.73;50.95;100713.38;5044485;28;20560;-82
2022/08/07 11:20:19;;;;;;;33.95;31.15;;;;;;;33.15;51.60;100713.31;5044433;28;20051;-82
2022/08/07 11:22:55;;;;;;;33.25;30.85;;;;;;;34.03;47.36;100724.59;5046626;28;20064;-81
2022/08/07 11:25:30;;;;;;;31.92;29.30;;;;;;;32.99;50.84;100722.41;5041958;28;20136;-80
2022/08/07 11:28:06;;;;;;;32.50;29.90;;;;;;;33.43;50.59;100718.63;5043130;28;20055;-83
2022/08/07 11:30:45;;;;;;;30.95;28.35;;;;;;;33.90;47.12;100712.94;5049721;28;20121;-81